sensor_id;sensor_type;location;lat;lon;timestamp;temperature;humidity
1524;DHT22;755;53.658;10.118;2022-10-13T00:06:20;8.10;99.90
1524;DHT22;755;53.658;10.118;2022-10-13T00:16:23;8.10;99.90
1524;DHT22;755;53.658;10.118;2022-10-13T00:26:27;8.10;99.90
1524;DHT22;755;53.658;10.118;2022-10-13T00:36:30;8.00;99.90
1524;DHT22;755;53.658;10.118;2022-10-13T00:46:35;8.10;99.90
1524;DHT22;755;53.658;10.118;2022-10-13T00:56:39;8.10;99.90
1524;DHT22;755;53.658;10.118;2022-10-13T01:06:44;8.20;99.90
1524;DHT22;755;53.658;10.118;2022-10-13T01:16:54;8.10;99.90
1524;DHT22;755;53.658;10.118;2022-10-13T01:27:15;8.00;99.90
1524;DHT22;755;53.658;10.118;2022-10-13T01:37:28;7.90;99.90
1524;DHT22;755;53.658;10.118;2022-10-13T01:47:31;7.70;99.90
1524;DHT22;755;53.658;10.118;2022-10-13T01:57:38;7.50;99.90
1524;DHT22;755;53.658;10.118;2022-10-13T02:07:45;7.30;99.90
1524;DHT22;755;53.658;10.118;2022-10-13T02:17:51;7.20;99.90
1524;DHT22;755;53.658;10.118;2022-10-13T02:27:54;7.10;99.90
1524;DHT22;755;53.658;10.118;2022-10-13T02:38:00;6.90;99.90
1524;DHT22;755;53.658;10.118;2022-10-13T02:48:02;6.80;99.90
1524;DHT22;755;53.658;10.118;2022-10-13T02:58:05;6.70;99.90
1524;DHT22;755;53.658;10.118;2022-10-13T03:08:07;6.70;99.90
1524;DHT22;755;53.658;10.118;2022-10-13T03:18:11;6.90;99.90
1524;DHT22;755;53.658;10.118;2022-10-13T03:28:13;7.00;99.90
1524;DHT22;755;53.658;10.118;2022-10-13T03:38:16;7.20;99.90
1524;DHT22;755;53.658;10.118;2022-10-13T03:48:18;7.40;99.90
1524;DHT22;755;53.658;10.118;2022-10-13T03:58:22;7.40;99.90
1524;DHT22;755;53.658;10.118;2022-10-13T04:08:25;7.30;99.90
1524;DHT22;755;53.658;10.118;2022-10-13T04:18:28;7.30;99.90
1524;DHT22;755;53.658;10.118;2022-10-13T04:28:30;7.30;99.90
1524;DHT22;755;53.658;10.118;2022-10-13T04:38:34;7.40;99.90
1524;DHT22;755;53.658;10.118;2022-10-13T04:48:36;7.50;99.90
1524;DHT22;755;53.658;10.118;2022-10-13T04:58:40;7.50;99.90
1524;DHT22;755;53.658;10.118;2022-10-13T05:08:43;7.40;99.90
1524;DHT22;755;53.658;10.118;2022-10-13T05:18:47;7.40;99.90
1524;DHT22;755;53.658;10.118;2022-10-13T05:28:49;7.40;99.90
1524;DHT22;755;53.658;10.118;2022-10-13T05:38:54;7.30;99.90
1524;DHT22;755;53.658;10.118;2022-10-13T05:48:56;7.40;99.90
1524;DHT22;755;53.658;10.118;2022-10-13T05:59:02;7.40;99.90
1524;DHT22;755;53.658;10.118;2022-10-13T06:09:05;7.50;99.90
1524;DHT22;755;53.658;10.118;2022-10-13T06:19:08;7.60;99.90
1524;DHT22;755;53.658;10.118;2022-10-13T06:29:10;7.70;99.90
1524;DHT22;755;53.658;10.118;2022-10-13T06:39:14;7.80;99.90
1524;DHT22;755;53.658;10.118;2022-10-13T06:49:16;8.00;99.90
1524;DHT22;755;53.658;10.118;2022-10-13T06:59:19;8.10;99.90
1524;DHT22;755;53.658;10.118;2022-10-13T07:09:21;8.20;99.90
1524;DHT22;755;53.658;10.118;2022-10-13T07:19:25;8.30;99.90
1524;DHT22;755;53.658;10.118;2022-10-13T07:29:27;8.50;99.90
1524;DHT22;755;53.658;10.118;2022-10-13T07:39:30;8.80;99.90
1524;DHT22;755;53.658;10.118;2022-10-13T07:49:32;9.00;99.90
1524;DHT22;755;53.658;10.118;2022-10-13T07:59:35;9.30;99.90
1524;DHT22;755;53.658;10.118;2022-10-13T08:09:37;9.50;99.90
1524;DHT22;755;53.658;10.118;2022-10-13T08:19:41;9.60;99.90
1524;DHT22;755;53.658;10.118;2022-10-13T08:29:43;9.80;99.90
1524;DHT22;755;53.658;10.118;2022-10-13T08:39:46;9.90;99.90
1524;DHT22;755;53.658;10.118;2022-10-13T08:49:48;10.30;99.90
1524;DHT22;755;53.658;10.118;2022-10-13T08:59:52;10.60;99.90
1524;DHT22;755;53.658;10.118;2022-10-13T09:09:54;10.70;99.90
1524;DHT22;755;53.658;10.118;2022-10-13T09:20:00;10.80;99.90
1524;DHT22;755;53.658;10.118;2022-10-13T09:30:29;11.10;99.90
1524;DHT22;755;53.658;10.118;2022-10-13T09:40:33;11.20;99.90
1524;DHT22;755;53.658;10.118;2022-10-13T09:50:35;11.60;99.90
1524;DHT22;755;53.658;10.118;2022-10-13T10:00:39;11.80;99.90
1524;DHT22;755;53.658;10.118;2022-10-13T10:10:41;12.20;99.90
1524;DHT22;755;53.658;10.118;2022-10-13T10:20:58;12.40;99.90
1524;DHT22;755;53.658;10.118;2022-10-13T10:31:08;12.60;99.90
1524;DHT22;755;53.658;10.118;2022-10-13T10:41:23;12.60;99.90
1524;DHT22;755;53.658;10.118;2022-10-13T10:51:30;12.50;99.90
1524;DHT22;755;53.658;10.118;2022-10-13T11:01:37;12.70;99.90
1524;DHT22;755;53.658;10.118;2022-10-13T11:11:42;12.80;99.90
1524;DHT22;755;53.658;10.118;2022-10-13T11:22:14;13.00;99.90
1524;DHT22;755;53.658;10.118;2022-10-13T11:32:41;13.50;99.90
1524;DHT22;755;53.658;10.118;2022-10-13T11:42:54;13.70;99.90
1524;DHT22;755;53.658;10.118;2022-10-13T11:53:09;13.80;99.90
1524;DHT22;755;53.658;10.118;2022-10-13T12:03:20;14.20;99.90
1524;DHT22;755;53.658;10.118;2022-10-13T12:13:24;14.40;99.90
1524;DHT22;755;53.658;10.118;2022-10-13T12:23:28;14.80;99.90
1524;DHT22;755;53.658;10.118;2022-10-13T12:33:32;14.70;99.90
1524;DHT22;755;53.658;10.118;2022-10-13T12:43:37;14.60;99.90
1524;DHT22;755;53.658;10.118;2022-10-13T12:53:39;14.70;99.90
1524;DHT22;755;53.658;10.118;2022-10-13T13:03:44;15.00;99.90
1524;DHT22;755;53.658;10.118;2022-10-13T13:13:46;15.00;99.90
1524;DHT22;755;53.658;10.118;2022-10-13T13:23:49;14.80;99.90
1524;DHT22;755;53.658;10.118;2022-10-13T13:33:51;14.90;99.90
1524;DHT22;755;53.658;10.118;2022-10-13T13:43:55;14.80;99.90
1524;DHT22;755;53.658;10.118;2022-10-13T13:53:57;14.60;99.90
1524;DHT22;755;53.658;10.118;2022-10-13T14:04:00;14.60;99.90
1524;DHT22;755;53.658;10.118;2022-10-13T14:14:02;14.50;99.90
1524;DHT22;755;53.658;10.118;2022-10-13T14:24:06;14.40;99.90
1524;DHT22;755;53.658;10.118;2022-10-13T14:34:09;14.40;99.90
1524;DHT22;755;53.658;10.118;2022-10-13T14:44:12;14.40;99.90
1524;DHT22;755;53.658;10.118;2022-10-13T14:54:14;14.40;99.90
1524;DHT22;755;53.658;10.118;2022-10-13T15:04:18;14.40;99.90
1524;DHT22;755;53.658;10.118;2022-10-13T15:14:20;14.40;99.90
1524;DHT22;755;53.658;10.118;2022-10-13T15:24:23;14.40;99.90
1524;DHT22;755;53.658;10.118;2022-10-13T15:34:25;14.30;99.90
1524;DHT22;755;53.658;10.118;2022-10-13T15:44:28;14.30;99.90
1524;DHT22;755;53.658;10.118;2022-10-13T15:54:31;14.10;99.90
1524;DHT22;755;53.658;10.118;2022-10-13T16:04:36;14.00;99.90
1524;DHT22;755;53.658;10.118;2022-10-13T16:14:38;13.90;99.90
1524;DHT22;755;53.658;10.118;2022-10-13T16:24:42;13.90;99.90
1524;DHT22;755;53.658;10.118;2022-10-13T16:34:45;13.80;99.90
1524;DHT22;755;53.658;10.118;2022-10-13T16:44:49;13.90;99.90
1524;DHT22;755;53.658;10.118;2022-10-13T16:54:50;13.80;99.90
1524;DHT22;755;53.658;10.118;2022-10-13T17:04:54;13.80;99.90
1524;DHT22;755;53.658;10.118;2022-10-13T17:14:56;13.70;99.90
1524;DHT22;755;53.658;10.118;2022-10-13T17:24:59;13.70;99.90
1524;DHT22;755;53.658;10.118;2022-10-13T17:35:01;13.60;99.90
1524;DHT22;755;53.658;10.118;2022-10-13T17:45:05;13.60;99.90
1524;DHT22;755;53.658;10.118;2022-10-13T17:55:08;13.60;99.90
1524;DHT22;755;53.658;10.118;2022-10-13T18:05:11;13.50;99.90
1524;DHT22;755;53.658;10.118;2022-10-13T18:15:13;13.50;99.90
1524;DHT22;755;53.658;10.118;2022-10-13T18:25:17;13.40;99.90
1524;DHT22;755;53.658;10.118;2022-10-13T18:35:19;13.40;99.90
1524;DHT22;755;53.658;10.118;2022-10-13T18:45:22;13.30;99.90
1524;DHT22;755;53.658;10.118;2022-10-13T18:55:24;13.30;99.90
1524;DHT22;755;53.658;10.118;2022-10-13T19:05:27;13.20;99.90
1524;DHT22;755;53.658;10.118;2022-10-13T19:15:29;13.10;99.90
1524;DHT22;755;53.658;10.118;2022-10-13T19:25:33;13.00;99.90
1524;DHT22;755;53.658;10.118;2022-10-13T19:35:38;12.90;99.90
1524;DHT22;755;53.658;10.118;2022-10-13T19:45:44;12.90;99.90
1524;DHT22;755;53.658;10.118;2022-10-13T19:55:47;12.90;99.90
1524;DHT22;755;53.658;10.118;2022-10-13T20:05:50;12.90;99.90
1524;DHT22;755;53.658;10.118;2022-10-13T20:15:52;12.90;99.90
1524;DHT22;755;53.658;10.118;2022-10-13T20:25:55;12.70;99.90
1524;DHT22;755;53.658;10.118;2022-10-13T20:35:58;12.70;99.90
1524;DHT22;755;53.658;10.118;2022-10-13T20:46:03;12.60;99.90
1524;DHT22;755;53.658;10.118;2022-10-13T20:56:07;12.70;99.90
1524;DHT22;755;53.658;10.118;2022-10-13T21:06:12;12.80;99.90
1524;DHT22;755;53.658;10.118;2022-10-13T21:16:16;12.90;99.90
1524;DHT22;755;53.658;10.118;2022-10-13T21:26:20;12.90;99.90
1524;DHT22;755;53.658;10.118;2022-10-13T21:36:24;12.90;99.90
1524;DHT22;755;53.658;10.118;2022-10-13T21:46:28;12.90;99.90
1524;DHT22;755;53.658;10.118;2022-10-13T21:56:31;12.80;99.90
1524;DHT22;755;53.658;10.118;2022-10-13T22:06:35;12.80;99.90
1524;DHT22;755;53.658;10.118;2022-10-13T22:16:38;12.80;99.90
1524;DHT22;755;53.658;10.118;2022-10-13T22:26:46;12.70;99.90
1524;DHT22;755;53.658;10.118;2022-10-13T22:36:48;12.70;99.90
1524;DHT22;755;53.658;10.118;2022-10-13T22:46:51;12.70;99.90
1524;DHT22;755;53.658;10.118;2022-10-13T22:56:53;12.70;99.90
1524;DHT22;755;53.658;10.118;2022-10-13T23:06:57;12.70;99.90
1524;DHT22;755;53.658;10.118;2022-10-13T23:17:00;12.70;99.90
1524;DHT22;755;53.658;10.118;2022-10-13T23:27:03;12.70;99.90
1524;DHT22;755;53.658;10.118;2022-10-13T23:37:05;12.80;99.90
1524;DHT22;755;53.658;10.118;2022-10-13T23:47:09;12.70;99.90
1524;DHT22;755;53.658;10.118;2022-10-13T23:57:11;12.80;99.90
